This is the latest recevied weather packets stored in our database for station/object SP3WRO-13. If no packets are shown the sender has not sent any weather packets the latest 10 day(s).
| Time | Temp. | Humidity | Pressure | Rain* | Wind** | Luminosity | Snow |
|---|---|---|---|---|---|---|---|
| 1777744766 | 21.67° C | 38% | 1012.9 hPa | - | - | 14 W/m² | - |
| 1777743866 | 22.78° C | 35% | 1013 hPa | - | - | 22 W/m² | - |
| 1777742966 | 23.33° C | 32% | 1013 hPa | - | - | 31 W/m² | - |
| 1777742066 | 24.44° C | 30% | 1013.1 hPa | - | - | 39 W/m² | - |
| 1777741166 | 24.44° C | 30% | 1013.2 hPa | - | - | 42 W/m² | - |
| 1777740266 | 24.44° C | 29% | 1013.4 hPa | - | - | 51 W/m² | - |
| 1777739365 | 25° C | 27% | 1013.4 hPa | - | - | 53 W/m² | - |
| 1777738465 | 25° C | 27% | 1013.6 hPa | - | - | 52 W/m² | - |
| 1777737565 | 25° C | 27% | 1013.8 hPa | - | - | 97 W/m² | - |
| 1777736665 | 25° C | 26% | 1014.2 hPa | - | - | 97 W/m² | - |
| 1777735765 | 25.56° C | 27% | 1014.5 hPa | - | - | 92 W/m² | - |
| 1777734865 | 26.11° C | 27% | 1014.6 hPa | - | - | 236 W/m² | - |
| 1777733965 | 26.11° C | 27% | 1014.8 hPa | - | - | 326 W/m² | - |
| 1777733065 | 25.56° C | 28% | 1015 hPa | - | - | 370 W/m² | - |
| 1777732165 | 25.56° C | 28% | 1015.2 hPa | - | - | 410 W/m² | - |
| 1777731265 | 25.56° C | 28% | 1015.6 hPa | - | - | 452 W/m² | - |
| 1777730365 | 26.11° C | 27% | 1015.5 hPa | - | - | 494 W/m² | - |
| 1777729465 | 26.11° C | 28% | 1015.7 hPa | - | - | 528 W/m² | - |
| 1777728564 | 25.56° C | 28% | 1016 hPa | - | - | 563 W/m² | - |
| 1777727663 | 25.56° C | 28% | 1016.1 hPa | - | - | 594 W/m² | - |
| 1777726763 | 25.56° C | 28% | 1016.4 hPa | - | - | 618 W/m² | - |
| 1777725862 | 25° C | 29% | 1016.7 hPa | - | - | 645 W/m² | - |
| 1777724962 | 25.56° C | 29% | 1016.9 hPa | - | - | 676 W/m² | - |
| 1777724062 | 25° C | 30% | 1017.2 hPa | - | - | 705 W/m² | - |
| 1777723162 | 25° C | 29% | 1017.3 hPa | - | - | 714 W/m² | - |
* Rain since midnight (hover to see other rain measurements)
** Current wind speed in m/s (hover to see current wind gust speed)